createdAt,value
2018-12-07T00:01:04.868Z,6.67
2018-12-07T00:02:14.674Z,6.67
2018-12-07T00:03:24.741Z,6.64
2018-12-07T00:04:34.542Z,6.68
2018-12-07T00:05:44.634Z,6.65
2018-12-07T00:06:54.719Z,6.7
2018-12-07T00:08:05.333Z,6.67
2018-12-07T00:09:15.404Z,6.51
2018-12-07T00:10:25.486Z,6.54
2018-12-07T00:11:35.653Z,6.54
2018-12-07T00:12:45.780Z,6.52
2018-12-07T00:13:55.889Z,6.6
2018-12-07T00:15:05.676Z,6.58
2018-12-07T00:16:15.479Z,6.52
2018-12-07T00:17:25.552Z,6.58
2018-12-07T00:18:36.524Z,6.58
2018-12-07T00:19:52.891Z,6.61
2018-12-07T00:21:02.772Z,6.51
2018-12-07T00:22:12.845Z,6.57
2018-12-07T00:23:22.920Z,6.55
2018-12-07T00:24:32.981Z,6.47
2018-12-07T00:25:43.018Z,6.46
2018-12-07T00:26:52.818Z,6.44
2018-12-07T00:28:05.244Z,6.46
2018-12-07T00:29:15.304Z,6.39
2018-12-07T00:30:25.409Z,6.34
2018-12-07T00:31:35.488Z,6.4
2018-12-07T00:32:45.547Z,6.43
2018-12-07T00:33:55.606Z,6.46
2018-12-07T00:35:06.057Z,6.36
2018-12-07T00:36:16.155Z,6.47
2018-12-07T00:37:26.201Z,6.29
2018-12-07T00:38:36.252Z,6.39
2018-12-07T00:39:46.046Z,6.34
2018-12-07T00:40:55.866Z,6.42
2018-12-07T00:42:06.017Z,6.29
2018-12-07T00:43:15.834Z,6.33
2018-12-07T00:44:25.917Z,6.37
2018-12-07T00:45:35.982Z,6.37
2018-12-07T00:46:45.573Z,6.39
2018-12-07T00:47:55.623Z,6.36
2018-12-07T00:49:05.707Z,6.33
2018-12-07T00:50:15.517Z,6.4
2018-12-07T00:51:25.630Z,6.44
2018-12-07T00:52:35.457Z,6.39
2018-12-07T00:53:45.264Z,6.34
2018-12-07T00:54:55.318Z,6.34
2018-12-07T00:56:05.394Z,6.34
2018-12-07T00:57:14.983Z,6.29
2018-12-07T00:58:25.078Z,6.28
2018-12-07T00:59:35.143Z,6.29
2018-12-07T01:00:44.947Z,6.29
2018-12-07T01:01:54.998Z,6.29
2018-12-07T01:03:04.816Z,6.33
2018-12-07T01:04:14.909Z,6.34
2018-12-07T01:05:25.036Z,6.26
2018-12-07T01:06:34.852Z,6.25
2018-12-07T01:07:44.938Z,6.31
2018-12-07T01:08:54.772Z,6.25
2018-12-07T01:10:04.904Z,6.26
2018-12-07T01:11:14.975Z,6.26
2018-12-07T01:12:25.056Z,6.17
2018-12-07T01:13:34.929Z,6.18
2018-12-07T01:14:44.985Z,6.1
2018-12-07T01:15:54.837Z,6.17
2018-12-07T01:17:04.905Z,6.24
2018-12-07T01:18:14.731Z,6.13
2018-12-07T01:19:24.903Z,6.2
2018-12-07T01:20:34.980Z,6.24
2018-12-07T01:21:45.111Z,6.1
2018-12-07T01:22:55.186Z,6.14
2018-12-07T01:24:05.238Z,6.09
2018-12-07T01:25:15.309Z,6.17
2018-12-07T01:26:25.390Z,6.07
2018-12-07T01:27:36.043Z,6.1
2018-12-07T01:28:45.857Z,5.99
2018-12-07T01:29:55.928Z,6.13
2018-12-07T01:31:09.296Z,6.02
2018-12-07T01:32:19.119Z,6.02
2018-12-07T01:33:29.264Z,6.06
2018-12-07T01:34:39.325Z,6.06
2018-12-07T01:35:49.388Z,6.02
2018-12-07T01:36:59.459Z,6.07
2018-12-07T01:38:09.531Z,6.02
2018-12-07T01:39:19.361Z,6.1
2018-12-07T01:40:29.507Z,6.03
2018-12-07T01:41:39.052Z,5.98
2018-12-07T01:42:49.103Z,5.95
2018-12-07T01:43:59.176Z,6.07
2018-12-07T01:45:08.990Z,6.13
2018-12-07T01:46:18.783Z,6.06
2018-12-07T01:47:28.838Z,6.05
2018-12-07T01:48:38.886Z,6.03
2018-12-07T01:49:48.937Z,5.98
2018-12-07T01:50:58.539Z,6.03
2018-12-07T01:52:08.623Z,6
2018-12-07T01:53:18.676Z,6.02
2018-12-07T01:54:28.740Z,6.02
2018-12-07T01:55:38.783Z,6.05
2018-12-07T01:56:48.845Z,6.09
2018-12-07T01:57:58.885Z,6.06
2018-12-07T01:59:08.690Z,6.09
2018-12-07T02:00:18.232Z,6.09
2018-12-07T02:01:28.281Z,6.14
2018-12-07T02:02:38.336Z,6.17
2018-12-07T02:03:48.394Z,6.13
2018-12-07T02:04:58.195Z,6.03
2018-12-07T02:06:08.247Z,6.13
2018-12-07T02:07:18.034Z,6.03
2018-12-07T02:08:28.876Z,6
2018-12-07T02:09:38.922Z,6.03
2018-12-07T02:10:48.985Z,6.05
2018-12-07T02:11:59.039Z,6.03
2018-12-07T02:13:08.833Z,6.09
2018-12-07T02:14:18.895Z,6.13
2018-12-07T02:15:28.955Z,6.09
2018-12-07T02:16:38.994Z,6.18
2018-12-07T02:17:49.065Z,6.24
2018-12-07T02:18:59.144Z,6.33
2018-12-07T02:20:08.946Z,6.31
2018-12-07T02:21:18.997Z,6.36
2018-12-07T02:22:29.130Z,6.52
2018-12-07T02:23:38.945Z,6.49
2018-12-07T02:24:48.743Z,6.47
2018-12-07T02:25:58.665Z,6.54
2018-12-07T02:27:08.732Z,6.54
2018-12-07T02:28:18.289Z,6.57
2018-12-07T02:29:28.335Z,6.58
2018-12-07T02:30:38.394Z,6.61
2018-12-07T02:31:48.520Z,6.55
2018-12-07T02:32:58.591Z,6.61
2018-12-07T02:34:08.664Z,6.6
2018-12-07T02:35:18.719Z,6.65
2018-12-07T02:36:28.794Z,6.67
2018-12-07T02:37:38.622Z,6.68
2018-12-07T02:38:48.159Z,6.79
2018-12-07T02:39:57.977Z,6.75
2018-12-07T02:41:10.273Z,6.73
2018-12-07T02:42:20.361Z,6.76
2018-12-07T02:43:29.915Z,6.8
2018-12-07T02:44:39.974Z,6.85
2018-12-07T02:45:50.054Z,6.78
2018-12-07T02:47:00.112Z,6.83
2018-12-07T02:48:10.188Z,6.78
2018-12-07T02:49:20.249Z,6.79
2018-12-07T02:50:29.813Z,6.78
2018-12-07T02:51:39.861Z,6.72
2018-12-07T02:52:49.920Z,6.75
2018-12-07T02:53:59.974Z,6.76
2018-12-07T02:55:09.812Z,6.64
2018-12-07T02:56:19.620Z,6.79
2018-12-07T02:57:29.686Z,6.68
2018-12-07T02:58:39.743Z,6.8
2018-12-07T02:59:49.789Z,6.76
2018-12-07T03:00:59.824Z,6.68
2018-12-07T03:02:09.613Z,6.73
2018-12-07T03:34:24.949Z,4.6
2018-12-07T03:35:34.755Z,4.51
2018-12-07T03:36:44.820Z,4.51
2018-12-07T03:37:54.862Z,4.51
2018-12-07T03:39:06.150Z,4.56
2018-12-07T03:40:16.321Z,4.51
2018-12-07T03:41:26.367Z,4.61
2018-12-07T03:42:36.409Z,4.78
2018-12-07T03:43:46.475Z,4.76
2018-12-07T03:44:56.517Z,4.84
2018-12-07T03:46:06.674Z,4.94
2018-12-07T03:47:16.766Z,5.15
2018-12-07T03:48:26.567Z,5.31
2018-12-07T03:49:36.384Z,5.39
2018-12-07T03:50:46.443Z,5.45
2018-12-07T03:51:56.542Z,5.51
2018-12-07T03:53:06.599Z,5.57
2018-12-07T03:54:16.666Z,5.66
2018-12-07T03:55:26.744Z,5.81
2018-12-07T03:56:36.810Z,5.82
2018-12-07T03:57:46.663Z,5.92
2018-12-07T03:58:56.719Z,5.91
2018-12-07T04:00:06.906Z,6
2018-12-07T04:01:16.976Z,6.09
2018-12-07T04:02:26.877Z,6.17
2018-12-07T04:03:36.991Z,6.14
2018-12-07T04:04:47.021Z,6.24
2018-12-07T04:05:57.205Z,6.33
2018-12-07T04:07:07.275Z,6.28
2018-12-07T04:08:17.093Z,6.28
2018-12-07T04:09:27.164Z,6.33
2018-12-07T04:10:37.217Z,6.34
2018-12-07T04:11:47.278Z,6.31
2018-12-07T04:12:57.076Z,6.39
2018-12-07T04:14:07.658Z,6.4
2018-12-07T04:15:17.724Z,6.46
2018-12-07T04:16:27.789Z,6.34
2018-12-07T04:17:37.949Z,6.37
2018-12-07T04:18:48.010Z,6.4
2018-12-07T04:19:58.073Z,6.33
2018-12-07T04:21:11.122Z,6.43
2018-12-07T04:22:20.925Z,6.4
2018-12-07T04:23:30.745Z,6.4
2018-12-07T04:24:40.591Z,6.37
2018-12-07T04:25:50.703Z,6.34
2018-12-07T04:27:01.428Z,6.37
2018-12-07T04:28:11.236Z,6.31
2018-12-07T04:29:21.295Z,6.43
2018-12-07T04:30:31.444Z,6.33
2018-12-07T04:31:41.489Z,6.37
2018-12-07T04:32:51.317Z,6.34
2018-12-07T04:34:01.394Z,6.31
2018-12-07T04:35:11.197Z,6.34
2018-12-07T04:36:21.382Z,6.31
2018-12-07T04:37:31.454Z,6.31
2018-12-07T04:38:41.562Z,6.4
2018-12-07T04:39:51.629Z,6.4
2018-12-07T04:41:01.703Z,6.33
2018-12-07T04:42:11.752Z,6.43
2018-12-07T04:43:21.312Z,6.47
2018-12-07T04:44:31.373Z,6.43
2018-12-07T04:45:41.433Z,6.54
2018-12-07T04:46:51.516Z,6.51
2018-12-07T04:48:02.465Z,6.51
2018-12-07T04:49:12.568Z,6.54
2018-12-07T04:50:22.438Z,6.47
2018-12-07T04:51:32.543Z,6.52
2018-12-07T04:52:42.629Z,6.52
2018-12-07T04:53:52.418Z,6.6
2018-12-07T04:55:02.491Z,6.58
2018-12-07T04:56:12.563Z,6.49
2018-12-07T04:57:22.649Z,6.73
2018-12-07T04:58:32.722Z,6.7
2018-12-07T04:59:42.545Z,6.58
2018-12-07T05:00:52.615Z,6.62
2018-12-07T05:02:03.691Z,6.61
2018-12-07T05:03:13.783Z,6.73
2018-12-07T05:04:23.831Z,6.78
2018-12-07T05:05:33.898Z,6.82
2018-12-07T05:06:43.943Z,6.76
2018-12-07T05:07:54.065Z,6.73
2018-12-07T05:09:04.133Z,6.83
2018-12-07T05:10:13.967Z,6.93
2018-12-07T05:11:24.043Z,7
2018-12-07T05:12:33.848Z,6.91
2018-12-07T05:13:43.950Z,6.91
2018-12-07T05:14:53.795Z,6.94
2018-12-07T05:16:05.374Z,7
2018-12-07T05:17:15.475Z,7.04
2018-12-07T05:18:25.050Z,6.97
2018-12-07T05:19:34.951Z,7.04
2018-12-07T05:20:44.770Z,6.98
2018-12-07T05:21:54.585Z,6.98
2018-12-07T05:23:04.645Z,6.98
2018-12-07T05:24:14.716Z,7.03
2018-12-07T05:25:24.783Z,7.04
2018-12-07T05:26:34.593Z,7.05
2018-12-07T05:27:44.684Z,7
2018-12-07T05:28:54.757Z,7.01
2018-12-07T05:30:05.597Z,7.01
2018-12-07T05:31:15.671Z,7.04
2018-12-07T05:32:25.753Z,7.08
2018-12-07T05:33:35.919Z,6.98
2018-12-07T05:34:45.473Z,6.97
2018-12-07T05:35:55.273Z,6.94
2018-12-07T05:37:05.373Z,6.97
2018-12-07T05:38:15.479Z,6.95
2018-12-07T05:39:25.550Z,6.93
2018-12-07T05:40:35.846Z,7
2018-12-07T05:41:45.950Z,6.97
2018-12-07T05:42:56.057Z,7.01
2018-12-07T05:44:06.136Z,6.95
2018-12-07T05:45:16.207Z,6.95
2018-12-07T05:46:26.268Z,7.01
2018-12-07T05:47:36.447Z,7
2018-12-07T05:48:46.507Z,6.95
2018-12-07T05:49:56.557Z,7.04
2018-12-07T05:51:06.626Z,7.03
2018-12-07T05:52:16.422Z,7.01
2018-12-07T05:53:26.481Z,7.05
2018-12-07T05:54:36.527Z,6.95
2018-12-07T05:55:46.601Z,6.95
2018-12-07T05:56:56.182Z,6.91
2018-12-07T05:58:06.335Z,6.85
2018-12-07T05:59:16.400Z,6.9
2018-12-07T06:00:26.202Z,6.85
2018-12-07T06:01:36.264Z,6.91
2018-12-07T06:02:46.317Z,6.91
2018-12-07T06:03:56.134Z,6.93
2018-12-07T06:05:06.501Z,6.82
2018-12-07T06:06:16.552Z,6.93
2018-12-07T06:07:26.588Z,6.91
2018-12-07T06:08:36.649Z,7
2018-12-07T06:09:46.458Z,6.98
2018-12-07T06:10:56.068Z,7.01
2018-12-07T06:12:07.116Z,7.01
2018-12-07T06:13:17.179Z,7.13
2018-12-07T06:14:27.247Z,7.12
2018-12-07T06:15:37.322Z,7.05
2018-12-07T06:16:47.380Z,7.21
2018-12-07T06:17:57.454Z,7.19
2018-12-07T06:19:07.511Z,7.15
2018-12-07T06:20:17.342Z,7.22
2018-12-07T06:21:27.389Z,7.22
2018-12-07T06:22:37.455Z,7.16
2018-12-07T06:23:47.285Z,7.19
2018-12-07T06:24:57.338Z,7.22
2018-12-07T06:26:07.413Z,7.21
2018-12-07T06:27:17.225Z,7.22
2018-12-07T06:28:27.408Z,7.21
2018-12-07T06:29:36.955Z,7.27
2018-12-07T06:30:47.029Z,7.22
2018-12-07T06:31:56.839Z,7.19
2018-12-07T06:33:06.910Z,7.26
2018-12-07T06:34:17.028Z,7.22
2018-12-07T06:35:27.093Z,7.33
2018-12-07T06:36:37.142Z,7.23
2018-12-07T06:37:47.198Z,7.26
2018-12-07T06:38:57.263Z,7.29
2018-12-07T06:40:07.347Z,7.26
2018-12-07T06:41:17.402Z,7.26
2018-12-07T06:42:27.458Z,7.26
2018-12-07T06:43:37.255Z,7.27
2018-12-07T06:44:47.044Z,7.23
2018-12-07T06:45:57.172Z,7.26
2018-12-07T06:47:07.292Z,7.21
2018-12-07T06:48:17.345Z,7.39
2018-12-07T06:49:27.489Z,7.36
2018-12-07T06:50:37.281Z,7.33
2018-12-07T06:51:47.099Z,7.44
2018-12-07T06:52:57.153Z,7.48
2018-12-07T06:54:07.313Z,7.55
2018-12-07T06:55:17.149Z,7.59
2018-12-07T06:56:27.210Z,7.67
2018-12-07T06:57:37.266Z,7.59
2018-12-07T06:58:46.824Z,7.67
2018-12-07T06:59:56.891Z,7.71
2018-12-07T07:01:08.744Z,7.74
2018-12-07T07:02:18.819Z,7.88
2018-12-07T07:03:28.892Z,7.85
2018-12-07T07:04:38.690Z,7.85
2018-12-07T07:05:48.496Z,7.93
2018-12-07T07:06:58.554Z,7.96
2018-12-07T07:08:08.607Z,7.93
2018-12-07T07:09:18.775Z,8.01
2018-12-07T07:10:28.881Z,7.96
2018-12-07T07:11:38.955Z,8.17
2018-12-07T07:12:49.024Z,8.11
2018-12-07T07:13:59.085Z,8.06
2018-12-07T07:15:09.198Z,8.11
2018-12-07T07:16:25.622Z,8.13
2018-12-07T07:17:35.797Z,8.16
2018-12-07T07:18:45.861Z,8.14
2018-12-07T07:19:55.924Z,8.13
2018-12-07T07:21:05.990Z,8.14
2018-12-07T07:22:15.839Z,8.16
2018-12-07T07:23:25.896Z,8.14
2018-12-07T07:24:35.964Z,8.24
2018-12-07T07:25:46.025Z,8.24
2018-12-07T07:26:56.080Z,8.31
2018-12-07T07:28:06.550Z,8.29
2018-12-07T07:29:16.622Z,8.25
2018-12-07T07:30:26.681Z,8.22
2018-12-07T07:31:43.164Z,8.28
2018-12-07T07:32:53.141Z,8.14
2018-12-07T07:34:02.941Z,8.17
2018-12-07T07:35:12.996Z,8.16
2018-12-07T07:36:23.075Z,8.17
2018-12-07T07:37:33.139Z,8.29
2018-12-07T07:38:43.194Z,8.25
2018-12-07T07:39:53.245Z,8.22
2018-12-07T07:41:03.450Z,8.19
2018-12-07T07:42:13.509Z,8.34
2018-12-07T07:43:23.557Z,8.35
2018-12-07T07:44:33.362Z,8.32
2018-12-07T07:45:43.148Z,8.32
2018-12-07T07:46:53.224Z,8.26
2018-12-07T07:48:03.028Z,8.39
2018-12-07T07:49:13.073Z,8.42
2018-12-07T07:50:23.134Z,8.4
2018-12-07T07:51:32.689Z,8.5
2018-12-07T07:52:42.765Z,8.46
2018-12-07T07:53:52.822Z,8.47
2018-12-07T07:55:02.923Z,8.42
2018-12-07T07:56:20.083Z,8.54
2018-12-07T07:57:30.118Z,8.77
2018-12-07T07:58:40.205Z,8.82
2018-12-07T07:59:50.007Z,8.83
2018-12-07T08:01:00.062Z,8.98
2018-12-07T08:02:10.149Z,9.09
2018-12-07T08:03:19.947Z,9.16
2018-12-07T08:04:29.765Z,9.21
2018-12-07T08:05:39.834Z,9.24
2018-12-07T08:06:49.961Z,9.2
2018-12-07T08:08:00.552Z,9.21
2018-12-07T08:09:10.373Z,9.21
2018-12-07T08:10:20.440Z,9.26
2018-12-07T08:11:30.496Z,9.26
2018-12-07T08:12:40.087Z,9.29
2018-12-07T08:13:49.910Z,9.26
2018-12-07T08:14:59.981Z,9.27
2018-12-07T08:16:10.090Z,9.42
2018-12-07T08:17:19.640Z,9.42
2018-12-07T08:18:29.683Z,9.5
2018-12-07T08:19:39.911Z,9.63
2018-12-07T08:20:49.972Z,9.63
2018-12-07T08:22:00.103Z,9.67
2018-12-07T08:23:17.034Z,9.64
2018-12-07T08:24:27.115Z,9.6
2018-12-07T08:25:37.176Z,9.62
2018-12-07T08:26:47.074Z,9.71
2018-12-07T08:27:57.148Z,9.7
2018-12-07T08:29:07.224Z,9.67
2018-12-07T08:30:17.088Z,9.57
2018-12-07T08:31:26.894Z,9.52
2018-12-07T08:32:36.945Z,9.5
2018-12-07T08:33:47.001Z,9.55
2018-12-07T08:34:57.057Z,9.5
2018-12-07T08:36:06.858Z,9.56
2018-12-07T08:37:16.668Z,9.63
2018-12-07T08:38:26.719Z,9.55
2018-12-07T08:39:36.278Z,9.55
2018-12-07T08:40:46.381Z,9.53
2018-12-07T08:41:56.449Z,9.59
2018-12-07T08:43:12.181Z,9.62
2018-12-07T08:44:22.227Z,9.5
2018-12-07T08:45:32.048Z,9.55
2018-12-07T08:46:42.127Z,9.39
2018-12-07T08:47:52.241Z,9.29
2018-12-07T08:49:02.342Z,9.26
2018-12-07T08:50:12.222Z,9.2
2018-12-07T08:51:22.326Z,9.19
2018-12-07T08:52:32.419Z,9.17
2018-12-07T08:53:42.518Z,9.17
2018-12-07T08:54:52.342Z,9.12
2018-12-07T08:56:02.524Z,9.16
2018-12-07T08:57:12.632Z,9.14
2018-12-07T08:58:22.725Z,9.11
2018-12-07T08:59:32.820Z,9.08
2018-12-07T09:00:42.913Z,9.17
2018-12-07T09:01:53.025Z,9.08
2018-12-07T09:03:03.182Z,9.2
2018-12-07T09:04:13.284Z,9.42
2018-12-07T09:05:23.380Z,9.6
2018-12-07T09:06:33.477Z,9.71
2018-12-07T09:07:43.567Z,9.88
2018-12-07T09:08:53.716Z,10.02
2018-12-07T09:10:03.820Z,10.15
2018-12-07T09:11:13.914Z,10.23
2018-12-07T09:12:23.771Z,10.41
2018-12-07T09:13:33.887Z,10.52
2018-12-07T09:14:43.991Z,10.73
2018-12-07T09:15:54.087Z,10.77
2018-12-07T09:17:04.175Z,10.94
2018-12-07T09:18:14.272Z,11.16
2018-12-07T09:19:24.370Z,11.26
2018-12-07T09:20:34.260Z,11.41
2018-12-07T09:21:44.354Z,11.39
2018-12-07T09:22:54.457Z,11.39
2018-12-07T09:24:04.297Z,11.35
2018-12-07T09:25:14.160Z,11.45
2018-12-07T09:26:24.081Z,11.53
2018-12-07T09:27:34.211Z,11.63
2018-12-07T09:28:44.293Z,11.71
2018-12-07T09:29:54.380Z,11.76
2018-12-07T09:31:04.439Z,11.85
2018-12-07T09:32:14.254Z,11.94
2018-12-07T09:33:24.324Z,12.07
2018-12-07T09:34:34.391Z,12.15
2018-12-07T09:35:44.452Z,12.13
2018-12-07T09:36:54.538Z,12.28
2018-12-07T09:38:04.862Z,12.4
2018-12-07T09:39:20.950Z,12.44
2018-12-07T09:40:31.002Z,12.44
2018-12-07T09:41:41.052Z,12.61
2018-12-07T09:42:51.108Z,12.71
2018-12-07T09:44:01.179Z,12.81
2018-12-07T09:45:11.012Z,12.94
2018-12-07T09:46:21.053Z,12.91
2018-12-07T09:47:31.138Z,12.99
2018-12-07T09:48:41.209Z,13.1
2018-12-07T09:49:51.285Z,13.29
2018-12-07T09:51:01.359Z,13.44
2018-12-07T09:52:11.161Z,13.45
2018-12-07T09:53:20.970Z,13.58
2018-12-07T09:54:31.033Z,13.58
2018-12-07T09:55:41.154Z,13.65
2018-12-07T09:56:51.231Z,13.58
2018-12-07T09:58:01.304Z,13.75
2018-12-07T09:59:11.521Z,13.83
2018-12-07T10:00:21.633Z,13.84
2018-12-07T10:01:31.813Z,13.95
2018-12-07T10:02:41.933Z,13.93
2018-12-07T10:03:52.043Z,13.86
2018-12-07T10:05:02.132Z,13.87
2018-12-07T10:06:12.233Z,13.84
2018-12-07T10:07:22.095Z,13.69
2018-12-07T10:08:32.237Z,13.76
2018-12-07T10:09:42.315Z,13.73
2018-12-07T10:10:52.129Z,13.73
2018-12-07T10:12:02.227Z,13.78
2018-12-07T10:13:12.996Z,13.95
2018-12-07T10:14:23.100Z,13.94
2018-12-07T10:15:33.214Z,13.88
2018-12-07T10:16:43.317Z,13.94
2018-12-07T10:17:53.406Z,13.86
2018-12-07T10:19:03.548Z,13.79
2018-12-07T10:20:13.639Z,13.81
2018-12-07T10:21:23.738Z,13.86
2018-12-07T10:22:33.839Z,13.76
2018-12-07T10:23:45.690Z,13.79
2018-12-07T10:24:55.550Z,13.75
2018-12-07T10:26:05.378Z,13.7
2018-12-07T10:27:15.488Z,13.66
2018-12-07T10:28:25.577Z,13.66
2018-12-07T10:29:35.673Z,13.63
2018-12-07T10:30:46.610Z,13.84
2018-12-07T10:31:56.677Z,13.9
2018-12-07T10:33:06.738Z,13.97
2018-12-07T10:34:16.562Z,13.97
2018-12-07T10:35:26.356Z,14.01
2018-12-07T10:36:37.383Z,14.06
2018-12-07T10:37:47.196Z,14.15
2018-12-07T10:38:57.269Z,14.2
2018-12-07T10:40:07.160Z,14.23
2018-12-07T10:41:16.975Z,14.24
2018-12-07T10:42:27.108Z,14.24
2018-12-07T10:43:36.935Z,14.28
2018-12-07T10:44:46.784Z,14.23
2018-12-07T10:45:56.871Z,14.16
2018-12-07T10:47:07.029Z,14.16
2018-12-07T10:48:17.091Z,14.12
2018-12-07T10:49:27.177Z,14.03
2018-12-07T10:50:38.032Z,14.12
2018-12-07T10:51:48.116Z,14.08
2018-12-07T10:52:58.265Z,14.12
2018-12-07T10:54:08.125Z,14.06
2018-12-07T10:55:17.955Z,14.23
2018-12-07T10:56:27.770Z,14.23
2018-12-07T10:57:37.830Z,14.13
2018-12-07T10:58:47.907Z,14.16
2018-12-07T10:59:57.745Z,14.19
2018-12-07T11:01:08.024Z,14.09
2018-12-07T11:02:18.075Z,13.99
2018-12-07T11:03:28.162Z,13.94
2018-12-07T11:04:38.225Z,13.84
2018-12-07T11:05:48.282Z,13.9
2018-12-07T11:06:58.133Z,13.81
2018-12-07T11:08:10.536Z,13.76
2018-12-07T11:09:20.349Z,13.7
2018-12-07T11:10:30.412Z,13.75
2018-12-07T11:11:40.460Z,13.76
2018-12-07T11:12:50.022Z,13.73
2018-12-07T11:13:59.855Z,13.73
2018-12-07T11:15:09.673Z,13.83
2018-12-07T11:16:19.779Z,13.84
2018-12-07T11:17:29.900Z,13.81
2018-12-07T11:18:39.973Z,13.79
2018-12-07T11:19:50.053Z,13.76
2018-12-07T11:20:59.868Z,13.63
2018-12-07T11:22:10.006Z,13.63
2018-12-07T11:23:20.131Z,13.57
2018-12-07T11:24:30.246Z,13.63
2018-12-07T11:25:40.360Z,13.55
2018-12-07T11:26:50.441Z,13.45
2018-12-07T11:28:03.610Z,13.39
2018-12-07T11:29:13.664Z,13.31
2018-12-07T11:30:23.759Z,13.36
2018-12-07T11:31:33.843Z,13.21
2018-12-07T11:32:43.913Z,13.24
2018-12-07T11:33:53.784Z,13.13
2018-12-07T11:35:04.756Z,13.11
2018-12-07T11:36:14.818Z,13.01
2018-12-07T11:37:25.628Z,13.03
2018-12-07T11:38:36.844Z,12.89
2018-12-07T11:39:47.429Z,12.86
2018-12-07T11:40:57.821Z,12.89
2018-12-07T11:42:08.114Z,12.86
2018-12-07T11:43:18.397Z,12.78
2018-12-07T11:44:28.500Z,12.92
2018-12-07T11:45:38.891Z,13.02
2018-12-07T11:46:49.841Z,13.03
2018-12-07T11:47:59.918Z,13.02
2018-12-07T11:49:10.041Z,13.07
2018-12-07T11:50:21.263Z,13.1
2018-12-07T11:51:32.603Z,13.17
2018-12-07T11:52:42.697Z,13.29
2018-12-07T11:53:52.813Z,13.31
2018-12-07T11:55:02.899Z,13.31
2018-12-07T11:56:12.746Z,13.35
2018-12-07T11:57:22.822Z,13.28
2018-12-07T11:58:32.956Z,13.27
2018-12-07T11:59:43.066Z,13.28
2018-12-07T12:00:53.231Z,13.25
2018-12-07T12:02:03.303Z,13.16
2018-12-07T12:03:13.140Z,13.09
2018-12-07T12:04:23.276Z,13.06
2018-12-07T12:05:33.365Z,13.06
2018-12-07T12:06:43.457Z,13.02
2018-12-07T12:07:53.055Z,13.02
2018-12-07T12:09:05.671Z,13.13
2018-12-07T12:10:15.556Z,13.2
2018-12-07T12:11:25.438Z,13.24
2018-12-07T12:12:35.266Z,13.25
2018-12-07T12:13:45.442Z,13.37
2018-12-07T12:14:55.248Z,13.36
2018-12-07T12:16:06.313Z,13.27
2018-12-07T12:17:16.153Z,13.21
2018-12-07T12:18:26.251Z,13.19
2018-12-07T12:19:36.315Z,13.13
2018-12-07T12:20:46.374Z,13.1
2018-12-07T12:21:56.439Z,12.99
2018-12-07T12:23:06.265Z,12.92
2018-12-07T12:24:16.344Z,12.89
2018-12-07T12:25:26.167Z,12.81
2018-12-07T12:26:36.276Z,12.91
2018-12-07T12:27:46.155Z,12.8
2018-12-07T12:28:56.276Z,12.84
2018-12-07T12:30:08.157Z,12.8
2018-12-07T12:31:18.223Z,12.8
2018-12-07T12:32:28.334Z,12.81
2018-12-07T12:33:38.476Z,12.83
2018-12-07T12:34:48.632Z,12.77
2018-12-07T12:35:58.734Z,12.89
2018-12-07T12:37:08.810Z,12.98
2018-12-07T12:38:19.022Z,12.94
2018-12-07T12:39:29.086Z,12.91
2018-12-07T12:40:38.990Z,12.91
2018-12-07T12:41:51.782Z,12.86
2018-12-07T12:43:01.591Z,12.94
2018-12-07T12:44:11.415Z,12.84
2018-12-07T12:45:21.520Z,12.88
2018-12-07T12:46:31.339Z,12.78
2018-12-07T12:47:41.409Z,12.8
2018-12-07T12:48:51.489Z,12.86
2018-12-07T12:50:01.588Z,12.76
2018-12-07T12:51:11.722Z,12.69
2018-12-07T12:52:21.780Z,12.71
2018-12-07T12:53:31.592Z,12.66
2018-12-07T12:54:41.694Z,12.61
2018-12-07T12:55:51.813Z,12.63
2018-12-07T12:57:01.662Z,12.58
2018-12-07T12:58:11.722Z,12.44
2018-12-07T12:59:21.832Z,12.47
2018-12-07T13:00:31.879Z,12.41
2018-12-07T13:01:41.682Z,12.38
2018-12-07T13:02:51.759Z,12.37
2018-12-07T13:04:01.890Z,12.44
2018-12-07T13:05:11.964Z,12.48
2018-12-07T13:06:22.027Z,12.45
2018-12-07T13:07:31.854Z,12.55
2018-12-07T13:08:41.774Z,12.55
2018-12-07T13:09:51.905Z,12.56
2018-12-07T13:11:02.462Z,12.56
2018-12-07T13:12:12.513Z,12.58
2018-12-07T13:13:22.599Z,12.59
2018-12-07T13:14:32.744Z,12.71
2018-12-07T13:15:42.818Z,12.78
2018-12-07T13:16:52.637Z,12.86
2018-12-07T13:18:04.009Z,12.78
2018-12-07T13:19:14.100Z,12.92
2018-12-07T13:20:24.192Z,12.99
2018-12-07T13:21:34.270Z,12.94
2018-12-07T13:22:44.341Z,12.95
2018-12-07T13:23:54.412Z,12.86
2018-12-07T13:25:04.277Z,12.78
2018-12-07T13:26:14.349Z,12.8
2018-12-07T13:27:24.511Z,12.62
2018-12-07T13:28:34.585Z,12.56
2018-12-07T13:29:44.417Z,12.48
2018-12-07T13:30:54.213Z,12.38
2018-12-07T13:32:04.353Z,12.23
2018-12-07T13:33:14.404Z,12.25
2018-12-07T13:34:24.478Z,12.2
2018-12-07T13:35:34.559Z,12.22
2018-12-07T13:36:44.639Z,12.13
2018-12-07T13:37:54.755Z,12.13
2018-12-07T13:39:04.810Z,12.15
2018-12-07T13:40:15.061Z,12.13
2018-12-07T13:41:25.529Z,12.13
2018-12-07T13:42:35.896Z,12.13
2018-12-07T13:43:46.479Z,12.1
2018-12-07T13:44:57.203Z,12.07
2018-12-07T13:46:08.439Z,11.91
2018-12-07T13:47:19.449Z,11.95
2018-12-07T13:48:30.183Z,11.88
2018-12-07T13:49:40.414Z,11.79
2018-12-07T13:50:50.709Z,11.91
2018-12-07T13:52:01.528Z,11.91
2018-12-07T13:53:12.139Z,11.94
2018-12-07T13:54:22.984Z,11.94
2018-12-07T13:55:33.455Z,11.79
2018-12-07T13:56:44.105Z,11.76
2018-12-07T13:57:54.675Z,11.79
2018-12-07T13:59:08.352Z,11.67
2018-12-07T14:00:18.998Z,11.7
2018-12-07T14:01:29.657Z,11.68
2018-12-07T14:02:40.901Z,11.66
2018-12-07T14:03:51.616Z,11.52
2018-12-07T14:05:02.429Z,11.51
2018-12-07T14:06:12.654Z,11.42
2018-12-07T14:07:22.752Z,11.42
2018-12-07T14:08:33.325Z,11.39
2018-12-07T14:09:44.328Z,11.31
2018-12-07T14:10:54.898Z,11.39
2018-12-07T14:12:05.302Z,11.34
2018-12-07T14:13:15.531Z,11.27
2018-12-07T14:14:25.957Z,11.26
2018-12-07T14:15:36.822Z,11.21
2018-12-07T14:16:47.293Z,11.18
2018-12-07T14:17:57.732Z,11.18
2018-12-07T14:19:08.894Z,11.06
2018-12-07T14:20:19.803Z,11.06
2018-12-07T14:21:29.911Z,10.95
2018-12-07T14:22:40.627Z,10.88
2018-12-07T14:23:51.390Z,10.8
2018-12-07T14:25:01.925Z,10.85
2018-12-07T14:26:12.578Z,10.77
2018-12-07T14:27:22.801Z,10.76
2018-12-07T14:28:33.697Z,10.75
2018-12-07T14:29:44.217Z,10.66
2018-12-07T14:30:54.783Z,10.66
2018-12-07T14:32:05.510Z,10.59
2018-12-07T14:33:16.396Z,10.59
2018-12-07T14:34:26.903Z,10.51
2018-12-07T14:35:37.309Z,10.54
2018-12-07T14:36:47.971Z,10.46
2018-12-07T14:37:58.144Z,10.41
2018-12-07T14:39:08.598Z,10.39
2018-12-07T14:40:19.428Z,10.44
2018-12-07T14:41:30.073Z,10.36
2018-12-07T14:42:40.577Z,10.36
2018-12-07T14:43:51.117Z,10.35
2018-12-07T14:45:01.683Z,10.31
2018-12-07T14:46:12.056Z,10.17
2018-12-07T14:47:22.776Z,10.25
2018-12-07T14:48:33.503Z,10.2
2018-12-07T14:49:43.780Z,10.18
2018-12-07T14:50:54.264Z,10.25
2018-12-07T14:52:04.975Z,10.17
2018-12-07T14:53:15.407Z,10.21
2018-12-07T14:54:26.024Z,10.13
2018-12-07T14:55:36.587Z,10.17
2018-12-07T14:56:46.977Z,10.13
2018-12-07T14:57:57.745Z,10.13
2018-12-07T14:59:10.981Z,10.14
2018-12-07T15:00:21.463Z,10.1
2018-12-07T15:01:31.939Z,10.02
2018-12-07T15:02:42.575Z,10
2018-12-07T15:03:53.347Z,10.02
2018-12-07T15:05:03.957Z,9.95
2018-12-07T15:06:14.800Z,9.99
2018-12-07T15:07:26.127Z,9.92
2018-12-07T15:08:36.793Z,9.95
2018-12-07T15:09:47.394Z,9.85
2018-12-07T15:10:58.021Z,9.82
2018-12-07T15:12:09.586Z,9.9
2018-12-07T15:13:20.362Z,9.89
2018-12-07T15:14:30.838Z,9.82
2018-12-07T15:15:41.656Z,9.75
2018-12-07T15:16:51.832Z,9.82
2018-12-07T15:18:02.238Z,9.75
2018-12-07T15:19:12.881Z,9.71
2018-12-07T15:20:22.374Z,9.64
2018-12-07T15:21:33.175Z,9.66
2018-12-07T15:22:42.983Z,9.67
2018-12-07T15:23:53.497Z,9.56
2018-12-07T15:25:03.892Z,9.55
2018-12-07T15:26:14.792Z,9.59
2018-12-07T15:27:25.636Z,9.56
2018-12-07T15:28:36.530Z,9.56
2018-12-07T15:29:46.829Z,9.47
2018-12-07T15:30:57.669Z,9.42
2018-12-07T15:32:08.593Z,9.41
2018-12-07T15:33:19.598Z,9.42
2018-12-07T15:34:30.402Z,9.44
2018-12-07T15:35:40.883Z,9.44
2018-12-07T15:36:52.153Z,9.53
2018-12-07T15:38:03.438Z,9.41
2018-12-07T15:39:13.927Z,9.35
2018-12-07T15:40:25.285Z,9.38
2018-12-07T15:41:35.939Z,9.38
2018-12-07T15:42:46.920Z,9.35
2018-12-07T15:43:57.186Z,9.38
2018-12-07T15:45:08.119Z,9.17
2018-12-07T15:46:18.910Z,9.29
2018-12-07T15:47:29.557Z,9.27
2018-12-07T15:48:40.536Z,9.24
2018-12-07T15:49:51.220Z,9.26
2018-12-07T15:51:02.435Z,9.2
2018-12-07T15:52:13.101Z,9.23
2018-12-07T15:53:23.379Z,9.16
2018-12-07T15:54:33.968Z,9.14
2018-12-07T15:55:45.618Z,9.12
2018-12-07T15:56:57.045Z,9.14
2018-12-07T15:58:07.998Z,9.12